createdAt,value
2022-11-29T00:01:54.112Z,1.94
2022-11-29T00:04:22.432Z,1.85
2022-11-29T00:06:50.781Z,1.77
2022-11-29T00:09:19.172Z,1.81
2022-11-29T00:12:04.710Z,1.83
2022-11-29T00:14:34.560Z,1.90
2022-11-29T00:17:04.479Z,1.92
2022-11-29T00:19:33.546Z,1.94
2022-11-29T00:22:02.439Z,1.87
2022-11-29T00:24:32.777Z,1.93
2022-11-29T00:27:01.920Z,1.97
2022-11-29T00:29:31.153Z,1.80
2022-11-29T00:32:01.064Z,1.84
2022-11-29T00:34:29.941Z,1.85
2022-11-29T00:36:58.411Z,1.83
2022-11-29T00:39:26.955Z,1.80
2022-11-29T00:41:55.455Z,1.76
2022-11-29T00:44:23.787Z,1.77
2022-11-29T00:46:52.107Z,1.89
2022-11-29T00:49:22.148Z,1.85
2022-11-29T00:51:50.719Z,1.76
2022-11-29T00:54:19.052Z,1.72
2022-11-29T00:56:47.345Z,1.87
2022-11-29T00:59:15.615Z,1.87
2022-11-29T01:01:43.962Z,1.86
2022-11-29T01:04:12.430Z,1.86
2022-11-29T01:06:42.301Z,1.87
2022-11-29T01:09:10.693Z,1.82
2022-11-29T01:11:38.985Z,1.76
2022-11-29T01:14:07.255Z,1.69
2022-11-29T01:16:36.132Z,1.70
2022-11-29T01:19:04.797Z,1.76
2022-11-29T01:21:33.238Z,1.88
2022-11-29T01:24:02.912Z,1.83
2022-11-29T01:26:32.640Z,1.83
2022-11-29T01:29:01.386Z,1.82
2022-11-29T01:31:31.450Z,1.72
2022-11-29T01:34:01.726Z,1.64
2022-11-29T01:36:30.822Z,1.75
2022-11-29T01:39:00.827Z,1.75
2022-11-29T01:41:32.806Z,1.79
2022-11-29T01:44:03.860Z,1.73
2022-11-29T01:46:33.663Z,1.71
2022-11-29T01:49:05.952Z,1.77
2022-11-29T01:51:36.073Z,1.85
2022-11-29T01:54:04.686Z,1.86
2022-11-29T01:56:35.329Z,1.77
2022-11-29T01:59:05.890Z,1.79
2022-11-29T02:01:35.182Z,1.77
2022-11-29T02:04:03.983Z,1.80
2022-11-29T02:06:32.385Z,1.72
2022-11-29T02:09:00.728Z,1.65
2022-11-29T02:11:51.475Z,1.61
2022-11-29T02:14:35.363Z,1.68
2022-11-29T02:17:12.422Z,1.76
2022-11-29T02:20:07.097Z,1.79
2022-11-29T02:22:42.752Z,1.85
2022-11-29T02:25:30.865Z,1.76
2022-11-29T02:28:43.677Z,1.75
2022-11-29T02:31:53.377Z,1.87
2022-11-29T02:34:34.651Z,1.77
2022-11-29T02:37:14.526Z,1.68
2022-11-29T02:39:57.748Z,1.73
2022-11-29T02:42:56.046Z,1.63
2022-11-29T02:45:34.569Z,1.65
2022-11-29T02:48:15.795Z,1.63
2022-11-29T02:50:51.442Z,1.66
2022-11-29T02:53:24.361Z,1.63
2022-11-29T02:55:58.661Z,1.64
2022-11-29T02:58:29.917Z,1.53
2022-11-29T03:01:02.626Z,1.60
2022-11-29T03:03:36.781Z,1.70
2022-11-29T03:06:15.044Z,1.87
2022-11-29T03:08:49.795Z,1.64
2022-11-29T03:11:25.699Z,1.64
2022-11-29T03:14:14.271Z,1.60
2022-11-29T03:16:47.849Z,1.58
2022-11-29T03:19:32.268Z,1.58
2022-11-29T03:22:09.410Z,1.47
2022-11-29T03:24:44.204Z,1.50
2022-11-29T03:27:14.865Z,1.58
2022-11-29T03:29:48.761Z,1.61
2022-11-29T03:32:21.833Z,1.65
2022-11-29T03:34:57.888Z,1.69
2022-11-29T03:37:32.514Z,1.71
2022-11-29T03:40:05.912Z,1.68
2022-11-29T03:42:37.693Z,1.63
2022-11-29T03:45:10.350Z,1.69
2022-11-29T03:47:46.006Z,1.73
2022-11-29T03:50:18.280Z,1.63
2022-11-29T03:52:51.766Z,1.66
2022-11-29T03:55:45.304Z,1.55
2022-11-29T03:58:22.624Z,1.57
2022-11-29T04:01:04.743Z,1.61
2022-11-29T04:03:52.455Z,1.69
2022-11-29T04:06:25.694Z,1.68
2022-11-29T04:09:16.156Z,1.71
2022-11-29T04:12:05.251Z,1.72
2022-11-29T04:14:52.044Z,1.71
2022-11-29T04:17:43.156Z,1.59
2022-11-29T04:20:48.926Z,1.68
2022-11-29T04:23:53.260Z,1.76
2022-11-29T04:26:53.520Z,1.77
2022-11-29T04:29:51.441Z,1.70
2022-11-29T04:32:52.147Z,1.74
2022-11-29T04:35:34.341Z,1.78
2022-11-29T04:38:18.762Z,1.57
2022-11-29T04:41:15.445Z,1.60
2022-11-29T04:43:53.167Z,1.62
2022-11-29T04:46:37.958Z,1.67
2022-11-29T04:49:31.013Z,1.71
2022-11-29T04:52:11.386Z,1.65
2022-11-29T04:54:46.943Z,1.76
2022-11-29T04:57:22.730Z,1.78
2022-11-29T04:59:57.902Z,1.87
2022-11-29T05:02:33.939Z,1.77
2022-11-29T05:05:08.592Z,1.87
2022-11-29T05:07:44.965Z,1.88
2022-11-29T05:10:21.746Z,1.91
2022-11-29T05:12:54.874Z,1.82
2022-11-29T05:15:51.580Z,1.75
2022-11-29T05:18:27.686Z,1.74
2022-11-29T05:21:01.911Z,1.76
2022-11-29T05:23:48.128Z,1.80
2022-11-29T05:26:21.067Z,1.89
2022-11-29T05:28:57.772Z,1.73
2022-11-29T05:31:51.589Z,1.77
2022-11-29T05:34:35.171Z,1.81
2022-11-29T05:37:10.478Z,1.85
2022-11-29T05:39:44.624Z,1.91
2022-11-29T05:42:37.545Z,1.91
2022-11-29T05:45:10.173Z,1.96
2022-11-29T05:47:46.711Z,1.95
2022-11-29T05:50:20.615Z,1.83
2022-11-29T05:52:55.083Z,1.74
2022-11-29T05:55:33.973Z,1.83
2022-11-29T05:58:05.524Z,1.89
2022-11-29T06:00:41.498Z,1.97
2022-11-29T06:03:16.219Z,1.96
2022-11-29T06:05:48.894Z,1.97
2022-11-29T06:08:21.014Z,1.95
2022-11-29T06:10:57.808Z,1.92
2022-11-29T06:13:36.775Z,1.96
2022-11-29T06:16:20.687Z,2.04
2022-11-29T06:19:16.384Z,1.99
2022-11-29T06:21:48.312Z,1.99
2022-11-29T06:24:37.462Z,1.99
2022-11-29T06:27:19.445Z,1.97
2022-11-29T06:29:52.825Z,2.01
2022-11-29T06:32:26.783Z,2.08
2022-11-29T06:35:00.412Z,1.88
2022-11-29T06:37:32.506Z,1.87
2022-11-29T06:40:01.237Z,1.84
2022-11-29T06:42:29.528Z,1.93
2022-11-29T06:44:58.135Z,1.95
2022-11-29T06:47:29.905Z,1.99
2022-11-29T06:50:06.720Z,2.03
2022-11-29T06:52:44.887Z,2.10
2022-11-29T06:55:16.706Z,1.97
2022-11-29T06:57:56.472Z,2.03
2022-11-29T07:00:27.726Z,2.19
2022-11-29T07:03:20.234Z,2.24
2022-11-29T07:05:51.953Z,2.19
2022-11-29T07:08:22.136Z,2.21
2022-11-29T07:10:53.295Z,2.29
2022-11-29T07:13:22.790Z,2.27
2022-11-29T07:16:04.321Z,2.22
2022-11-29T07:18:35.820Z,2.35
2022-11-29T07:21:12.970Z,2.20
2022-11-29T07:23:45.445Z,2.14
2022-11-29T07:26:20.068Z,2.26
2022-11-29T07:29:01.484Z,2.28
2022-11-29T07:31:36.701Z,2.42
2022-11-29T07:34:12.082Z,2.40
2022-11-29T07:36:52.554Z,2.44
2022-11-29T07:39:27.080Z,2.43
2022-11-29T07:42:01.969Z,2.60
2022-11-29T07:44:37.760Z,2.65
2022-11-29T07:47:06.330Z,2.69
2022-11-29T07:49:34.677Z,2.60
2022-11-29T07:52:04.388Z,2.55
2022-11-29T07:54:32.707Z,2.61
2022-11-29T07:57:01.153Z,2.75
2022-11-29T07:59:29.450Z,2.79
2022-11-29T08:01:58.923Z,2.86
2022-11-29T08:04:27.246Z,2.96
2022-11-29T08:06:55.628Z,2.92
2022-11-29T08:09:25.576Z,2.88
2022-11-29T08:11:53.917Z,2.92
2022-11-29T08:14:22.345Z,2.88
2022-11-29T08:16:50.734Z,2.84
2022-11-29T08:19:19.847Z,2.81
2022-11-29T08:21:48.366Z,3.03
2022-11-29T08:24:16.597Z,2.96
2022-11-29T08:26:46.268Z,3.07
2022-11-29T08:29:14.526Z,2.99
2022-11-29T08:31:43.289Z,2.96
2022-11-29T08:34:11.857Z,2.91
2022-11-29T08:36:40.325Z,2.97
2022-11-29T08:39:09.712Z,2.95
2022-11-29T08:41:38.824Z,3.04
2022-11-29T08:44:08.971Z,2.95
2022-11-29T08:47:03.178Z,3.12
2022-11-29T08:49:31.494Z,2.97
2022-11-29T08:52:14.313Z,2.84
2022-11-29T08:54:43.854Z,3.06
2022-11-29T09:00:03.165Z,2.86
2022-11-29T09:02:32.091Z,2.88
2022-11-29T09:05:00.425Z,3.01
2022-11-29T09:07:29.258Z,3.14
2022-11-29T09:09:57.646Z,3.14
2022-11-29T09:12:26.130Z,3.16
2022-11-29T09:14:54.460Z,3.30
2022-11-29T09:17:24.121Z,3.49
2022-11-29T09:19:52.473Z,3.31
2022-11-29T09:22:21.036Z,3.13
2022-11-29T09:24:49.312Z,3.17
2022-11-29T09:27:20.192Z,3.28
2022-11-29T09:29:48.482Z,3.39
2022-11-29T09:32:16.805Z,3.44
2022-11-29T09:34:46.762Z,3.47
2022-11-29T09:37:15.251Z,3.36
2022-11-29T09:39:43.515Z,3.38
2022-11-29T09:42:31.610Z,3.30
2022-11-29T09:45:05.100Z,3.30
2022-11-29T09:47:53.203Z,3.33
2022-11-29T09:50:28.557Z,3.37
2022-11-29T09:53:09.402Z,3.34
2022-11-29T09:55:47.813Z,3.47
2022-11-29T09:58:20.899Z,3.61
2022-11-29T10:00:51.669Z,3.60
2022-11-29T10:03:25.555Z,3.76
2022-11-29T10:05:59.679Z,3.93
2022-11-29T10:08:33.890Z,4.04
2022-11-29T10:11:13.119Z,4.04
2022-11-29T10:13:45.777Z,4.05
2022-11-29T10:16:19.756Z,4.11
2022-11-29T10:18:51.437Z,4.14
2022-11-29T10:21:24.516Z,4.16
2022-11-29T10:23:55.683Z,4.09
2022-11-29T10:26:27.304Z,4.13
2022-11-29T10:28:58.112Z,4.12
2022-11-29T10:31:29.343Z,4.29
2022-11-29T10:34:01.066Z,4.11
2022-11-29T10:36:37.544Z,4.21
2022-11-29T10:39:14.778Z,4.25
2022-11-29T10:41:43.213Z,4.18
2022-11-29T10:44:14.062Z,4.09
2022-11-29T10:46:42.785Z,3.99
2022-11-29T10:49:15.275Z,3.85
2022-11-29T10:51:46.081Z,3.66
2022-11-29T10:54:32.253Z,3.59
2022-11-29T10:57:02.072Z,3.71
2022-11-29T10:59:33.022Z,3.62
2022-11-29T11:02:01.589Z,3.59
2022-11-29T11:04:31.619Z,3.60
2022-11-29T11:07:03.926Z,3.52
2022-11-29T11:09:39.104Z,3.68
2022-11-29T11:12:09.400Z,3.75
2022-11-29T11:14:39.370Z,3.87
2022-11-29T11:17:26.191Z,3.89
2022-11-29T11:20:01.123Z,4.03
2022-11-29T11:22:32.785Z,4.18
2022-11-29T11:25:03.857Z,4.11
2022-11-29T11:27:33.504Z,4.25
2022-11-29T11:30:02.099Z,4.17
2022-11-29T11:32:30.485Z,4.12
2022-11-29T11:35:00.195Z,4.12
2022-11-29T11:37:30.855Z,4.08
2022-11-29T11:40:00.405Z,3.99
2022-11-29T11:42:40.656Z,4.10
2022-11-29T11:45:27.280Z,4.07
2022-11-29T11:47:58.054Z,4.06
2022-11-29T11:50:29.894Z,4.06
2022-11-29T11:53:01.798Z,4.10
2022-11-29T11:55:36.306Z,3.89
2022-11-29T11:58:10.667Z,4.17
2022-11-29T12:01:04.109Z,4.16
2022-11-29T12:03:37.557Z,4.05
2022-11-29T12:06:18.970Z,4.01
2022-11-29T12:08:49.098Z,3.81
2022-11-29T12:11:18.953Z,3.79
2022-11-29T12:13:51.748Z,3.86
2022-11-29T12:16:27.613Z,3.67
2022-11-29T12:19:00.845Z,3.56
2022-11-29T12:21:34.580Z,3.52
2022-11-29T12:24:09.958Z,3.45
2022-11-29T12:29:33.532Z,3.49
2022-11-29T12:32:13.123Z,3.55
2022-11-29T12:34:55.015Z,3.45
2022-11-29T12:37:28.044Z,3.39
2022-11-29T12:40:04.803Z,3.49
2022-11-29T12:42:41.328Z,3.49
2022-11-29T12:45:24.835Z,3.50
2022-11-29T12:47:59.084Z,3.52
2022-11-29T12:50:34.695Z,3.53
2022-11-29T12:53:25.530Z,3.49
2022-11-29T12:56:05.183Z,3.44
2022-11-29T12:58:44.227Z,3.53
2022-11-29T13:01:21.478Z,3.54
2022-11-29T13:03:56.594Z,3.69
2022-11-29T13:06:30.555Z,3.76
2022-11-29T13:09:25.812Z,3.80
2022-11-29T13:11:57.953Z,3.75
2022-11-29T13:14:48.238Z,3.91
2022-11-29T13:17:25.484Z,3.88
2022-11-29T13:19:57.904Z,3.93
2022-11-29T13:22:32.079Z,3.97
2022-11-29T13:25:02.835Z,4.00
2022-11-29T13:27:38.069Z,3.74
2022-11-29T13:30:09.093Z,3.62
2022-11-29T13:32:39.962Z,3.60
2022-11-29T13:35:09.991Z,3.37
2022-11-29T13:37:42.188Z,3.40
2022-11-29T13:40:21.418Z,3.28
2022-11-29T13:42:59.377Z,3.30
2022-11-29T13:45:32.667Z,3.39
2022-11-29T13:48:02.260Z,3.36
2022-11-29T13:50:39.033Z,3.40
2022-11-29T13:53:14.570Z,3.35
2022-11-29T13:55:47.984Z,3.45
2022-11-29T13:58:35.452Z,3.39
2022-11-29T14:01:07.992Z,3.32
2022-11-29T14:03:39.762Z,3.33
2022-11-29T14:06:14.462Z,3.37
2022-11-29T14:09:24.503Z,3.32
2022-11-29T14:12:00.182Z,3.45
2022-11-29T14:14:33.319Z,3.32
2022-11-29T14:17:02.939Z,3.54
2022-11-29T14:19:34.060Z,3.45
2022-11-29T14:22:20.727Z,3.48
2022-11-29T14:25:00.015Z,3.51
2022-11-29T14:28:08.341Z,3.38
2022-11-29T14:30:52.313Z,3.47
2022-11-29T14:33:51.143Z,3.37
2022-11-29T14:36:27.305Z,3.24
2022-11-29T14:39:05.864Z,3.20
2022-11-29T14:41:46.971Z,3.22
2022-11-29T14:44:19.276Z,3.14
2022-11-29T14:46:49.539Z,3.09
2022-11-29T14:49:23.571Z,3.20
2022-11-29T14:52:18.447Z,3.23
2022-11-29T14:54:59.162Z,3.30
2022-11-29T14:57:53.331Z,3.27
2022-11-29T15:00:23.225Z,3.20
2022-11-29T15:02:54.632Z,3.15
2022-11-29T15:05:28.365Z,3.09
2022-11-29T15:08:05.287Z,3.28
2022-11-29T15:10:37.704Z,3.13
2022-11-29T15:13:06.315Z,3.02
2022-11-29T15:15:39.374Z,2.78
2022-11-29T15:18:21.580Z,2.87
2022-11-29T15:21:04.008Z,2.80
2022-11-29T15:23:41.164Z,2.91
2022-11-29T15:26:17.712Z,2.77
2022-11-29T15:28:46.470Z,2.83
2022-11-29T15:31:17.848Z,2.87
2022-11-29T15:33:48.773Z,2.86
2022-11-29T15:36:19.939Z,2.96
2022-11-29T15:38:49.715Z,2.83
2022-11-29T15:41:23.261Z,2.87
2022-11-29T15:43:54.493Z,2.90
2022-11-29T15:46:25.924Z,2.76
2022-11-29T15:48:56.423Z,2.81
2022-11-29T15:51:29.749Z,2.78
2022-11-29T15:54:12.074Z,2.92
2022-11-29T15:56:44.153Z,2.96
2022-11-29T15:59:21.611Z,3.04
2022-11-29T16:01:51.796Z,2.93
2022-11-29T16:04:22.692Z,2.82
2022-11-29T16:06:52.306Z,2.87
2022-11-29T16:09:23.989Z,2.74
2022-11-29T16:11:53.087Z,2.70
2022-11-29T16:14:23.754Z,2.79
2022-11-29T16:16:54.696Z,2.75
2022-11-29T16:19:30.910Z,2.74
2022-11-29T16:22:01.479Z,2.81
2022-11-29T16:24:31.750Z,2.88
2022-11-29T16:27:02.366Z,2.93
2022-11-29T16:29:32.723Z,3.33
2022-11-29T16:32:05.547Z,3.18
2022-11-29T16:34:42.986Z,2.98
2022-11-29T16:37:21.914Z,3.15
2022-11-29T16:39:54.126Z,2.97
2022-11-29T16:42:26.021Z,3.19
2022-11-29T16:45:34.255Z,2.88
2022-11-29T16:48:05.859Z,2.83
2022-11-29T16:50:36.961Z,2.85
2022-11-29T16:53:36.244Z,2.82
2022-11-29T16:56:06.609Z,2.80
2022-11-29T16:58:40.193Z,2.70
2022-11-29T17:01:28.314Z,2.64
2022-11-29T17:03:58.650Z,2.60
2022-11-29T17:06:29.983Z,2.57
2022-11-29T17:09:01.192Z,2.58
2022-11-29T17:11:32.907Z,2.65
2022-11-29T17:14:03.276Z,2.57
2022-11-29T17:16:32.905Z,2.55
2022-11-29T17:19:02.063Z,2.43
2022-11-29T17:21:32.508Z,2.44
2022-11-29T17:24:01.261Z,2.48
2022-11-29T17:26:32.097Z,2.54
2022-11-29T17:29:01.253Z,2.61
2022-11-29T17:31:35.137Z,2.62
2022-11-29T17:34:04.347Z,2.71
2022-11-29T17:36:34.492Z,2.75
2022-11-29T17:39:03.165Z,2.70
2022-11-29T17:41:33.130Z,2.83
2022-11-29T17:44:02.499Z,2.75
2022-11-29T17:46:33.229Z,2.71
2022-11-29T17:49:04.179Z,2.71
2022-11-29T17:51:55.928Z,2.71
2022-11-29T17:54:28.419Z,2.73
2022-11-29T17:56:57.682Z,2.61
2022-11-29T17:59:27.847Z,2.74
2022-11-29T18:01:57.569Z,2.68
2022-11-29T18:04:27.131Z,2.55
2022-11-29T18:06:57.657Z,2.51
2022-11-29T18:09:27.050Z,2.51
2022-11-29T18:11:56.335Z,2.58
2022-11-29T18:14:29.229Z,2.73
2022-11-29T18:16:59.566Z,2.68
2022-11-29T18:19:29.988Z,2.69
2022-11-29T18:22:04.685Z,2.68
2022-11-29T18:24:34.738Z,2.61
2022-11-29T18:27:05.002Z,2.55
2022-11-29T18:29:39.061Z,2.63
2022-11-29T18:32:09.854Z,2.63
2022-11-29T18:34:40.474Z,2.49
2022-11-29T18:37:17.614Z,2.51
2022-11-29T18:39:54.793Z,2.49
2022-11-29T18:42:25.991Z,2.50
2022-11-29T18:45:00.305Z,2.43
2022-11-29T18:47:33.455Z,2.40
2022-11-29T18:50:07.659Z,2.60
2022-11-29T18:52:40.895Z,2.51
2022-11-29T18:55:11.821Z,2.50
2022-11-29T18:57:42.858Z,2.57
2022-11-29T19:00:14.447Z,2.57
2022-11-29T19:02:45.949Z,2.54
2022-11-29T19:05:15.950Z,2.55
2022-11-29T19:07:48.046Z,2.61
2022-11-29T19:10:19.542Z,2.54
2022-11-29T19:12:49.518Z,2.55
2022-11-29T19:15:21.080Z,2.58
2022-11-29T19:17:53.418Z,2.56
2022-11-29T19:20:23.478Z,2.63
2022-11-29T19:23:00.273Z,2.62
2022-11-29T19:25:33.864Z,2.54
2022-11-29T19:28:03.599Z,2.53
2022-11-29T19:30:34.921Z,2.54
2022-11-29T19:33:04.551Z,2.56
2022-11-29T19:35:34.311Z,2.44
2022-11-29T19:38:08.597Z,2.50
2022-11-29T19:40:41.132Z,2.49
2022-11-29T19:43:11.797Z,2.46
2022-11-29T19:45:42.498Z,2.56
2022-11-29T19:48:16.104Z,2.59
2022-11-29T19:50:46.853Z,2.76
2022-11-29T19:53:22.225Z,2.64
2022-11-29T19:55:52.124Z,2.64
2022-11-29T19:58:23.303Z,2.70
2022-11-29T20:00:55.276Z,3.06
2022-11-29T20:03:25.899Z,2.98
2022-11-29T20:05:58.520Z,2.90
2022-11-29T20:08:30.785Z,2.72
2022-11-29T20:11:08.394Z,2.63
2022-11-29T20:13:39.292Z,2.60
2022-11-29T20:16:11.500Z,2.55
2022-11-29T20:18:48.809Z,2.53
2022-11-29T20:21:21.311Z,2.49
2022-11-29T20:23:57.921Z,2.47
2022-11-29T20:26:29.377Z,2.52
2022-11-29T20:29:00.016Z,2.53
2022-11-29T20:31:30.551Z,2.78
2022-11-29T20:34:03.155Z,2.87
2022-11-29T20:36:46.862Z,2.62
2022-11-29T20:39:26.876Z,2.48
2022-11-29T20:42:14.779Z,2.78
2022-11-29T20:44:50.922Z,2.65
2022-11-29T20:47:23.698Z,2.67
2022-11-29T20:49:57.065Z,2.72
2022-11-29T20:52:35.352Z,2.73
2022-11-29T20:55:06.480Z,2.66
2022-11-29T20:57:39.008Z,2.65
2022-11-29T21:00:11.201Z,2.71
2022-11-29T21:02:43.086Z,2.52
2022-11-29T21:05:13.429Z,2.51
2022-11-29T21:07:42.863Z,2.47
2022-11-29T21:10:19.926Z,2.61
2022-11-29T21:12:50.573Z,2.68
2022-11-29T21:15:22.266Z,2.51
2022-11-29T21:17:53.307Z,2.58
2022-11-29T21:20:24.912Z,2.53
2022-11-29T21:22:59.871Z,2.55
2022-11-29T21:25:39.135Z,2.54
2022-11-29T21:28:12.871Z,2.54
2022-11-29T21:30:42.568Z,2.58
2022-11-29T21:33:12.408Z,2.60
2022-11-29T21:35:42.034Z,2.55
2022-11-29T21:38:14.920Z,2.51
2022-11-29T21:40:45.068Z,2.53
2022-11-29T21:43:13.502Z,2.62
2022-11-29T21:45:42.494Z,2.55
2022-11-29T21:48:30.910Z,2.60
2022-11-29T21:50:59.236Z,2.64
2022-11-29T21:53:28.033Z,2.61
2022-11-29T21:56:02.322Z,2.71
2022-11-29T21:58:32.762Z,2.70
2022-11-29T22:01:07.800Z,2.75
2022-11-29T22:03:36.162Z,2.73
2022-11-29T22:06:05.489Z,2.61
2022-11-29T22:08:38.981Z,2.62
2022-11-29T22:11:10.552Z,2.65
2022-11-29T22:14:00.138Z,2.62
2022-11-29T22:16:28.682Z,2.63
2022-11-29T22:18:56.978Z,2.62
2022-11-29T22:21:25.266Z,2.63
2022-11-29T22:23:53.845Z,2.64
2022-11-29T22:26:24.267Z,2.58
2022-11-29T22:28:52.684Z,2.57
2022-11-29T22:31:21.005Z,2.54
2022-11-29T22:33:49.280Z,2.48
2022-11-29T22:36:17.662Z,2.44
2022-11-29T22:38:45.988Z,2.44
2022-11-29T22:41:14.898Z,2.40
2022-11-29T22:43:44.846Z,2.48
2022-11-29T22:46:14.601Z,2.52
2022-11-29T22:48:43.979Z,2.60
2022-11-29T22:51:14.349Z,2.60
2022-11-29T22:53:43.647Z,2.56
2022-11-29T22:56:12.779Z,2.59
2022-11-29T22:58:41.092Z,2.58
2022-11-29T23:01:12.569Z,2.59
2022-11-29T23:03:42.621Z,2.65
2022-11-29T23:06:12.615Z,2.73
2022-11-29T23:08:42.392Z,2.76
2022-11-29T23:11:14.149Z,2.68
2022-11-29T23:13:43.593Z,2.71
2022-11-29T23:16:15.250Z,2.68
2022-11-29T23:18:45.679Z,2.76
2022-11-29T23:21:15.919Z,2.69
2022-11-29T23:23:44.920Z,2.60
2022-11-29T23:26:19.502Z,2.57
2022-11-29T23:28:48.227Z,2.49
2022-11-29T23:31:18.559Z,2.58
2022-11-29T23:33:47.138Z,2.71
2022-11-29T23:36:16.808Z,2.73
2022-11-29T23:38:45.269Z,2.77
2022-11-29T23:41:13.907Z,2.74
2022-11-29T23:43:42.600Z,2.72
2022-11-29T23:46:13.909Z,2.68
2022-11-29T23:48:43.994Z,2.69
2022-11-29T23:51:12.780Z,2.70
2022-11-29T23:53:41.627Z,2.69
2022-11-29T23:56:13.989Z,2.65
2022-11-29T23:58:42.423Z,2.63
